sensor_id;sensor_type;location;lat;lon;timestamp;temperature;humidity
10316;DHT22;5203;48.976;8.306;2022-08-14T00:00:23;23.80;46.30
10316;DHT22;5203;48.976;8.306;2022-08-14T00:02:49;23.90;46.00
10316;DHT22;5203;48.976;8.306;2022-08-14T00:05:18;24.00;44.80
10316;DHT22;5203;48.976;8.306;2022-08-14T00:07:44;24.10;44.90
10316;DHT22;5203;48.976;8.306;2022-08-14T00:10:14;24.10;44.80
10316;DHT22;5203;48.976;8.306;2022-08-14T00:12:43;24.10;45.40
10316;DHT22;5203;48.976;8.306;2022-08-14T00:15:17;24.10;46.00
10316;DHT22;5203;48.976;8.306;2022-08-14T00:17:44;24.10;45.70
10316;DHT22;5203;48.976;8.306;2022-08-14T00:20:10;24.10;45.50
10316;DHT22;5203;48.976;8.306;2022-08-14T00:22:37;23.90;45.60
10316;DHT22;5203;48.976;8.306;2022-08-14T00:25:05;23.70;46.80
10316;DHT22;5203;48.976;8.306;2022-08-14T00:27:31;23.50;47.80
10316;DHT22;5203;48.976;8.306;2022-08-14T00:29:57;23.20;48.10
10316;DHT22;5203;48.976;8.306;2022-08-14T00:32:22;23.30;47.90
10316;DHT22;5203;48.976;8.306;2022-08-14T00:34:48;23.40;47.60
10316;DHT22;5203;48.976;8.306;2022-08-14T00:37:14;23.50;47.60
10316;DHT22;5203;48.976;8.306;2022-08-14T00:39:40;23.40;47.70
10316;DHT22;5203;48.976;8.306;2022-08-14T00:42:06;23.40;48.00
10316;DHT22;5203;48.976;8.306;2022-08-14T00:44:32;23.40;47.50
10316;DHT22;5203;48.976;8.306;2022-08-14T00:46:58;23.40;47.10
10316;DHT22;5203;48.976;8.306;2022-08-14T00:49:25;23.40;47.40
10316;DHT22;5203;48.976;8.306;2022-08-14T00:51:53;23.30;48.30
10316;DHT22;5203;48.976;8.306;2022-08-14T00:54:18;23.20;48.40
10316;DHT22;5203;48.976;8.306;2022-08-14T00:56:44;23.00;48.70
10316;DHT22;5203;48.976;8.306;2022-08-14T00:59:10;23.10;48.40
10316;DHT22;5203;48.976;8.306;2022-08-14T01:01:37;23.20;47.90
10316;DHT22;5203;48.976;8.306;2022-08-14T01:04:03;23.30;47.50
10316;DHT22;5203;48.976;8.306;2022-08-14T01:06:29;23.30;47.30
10316;DHT22;5203;48.976;8.306;2022-08-14T01:08:58;23.30;47.80
10316;DHT22;5203;48.976;8.306;2022-08-14T01:11:26;23.30;47.90
10316;DHT22;5203;48.976;8.306;2022-08-14T01:13:52;22.90;49.30
10316;DHT22;5203;48.976;8.306;2022-08-14T01:16:23;22.70;50.20
10316;DHT22;5203;48.976;8.306;2022-08-14T01:18:49;22.70;50.00
10316;DHT22;5203;48.976;8.306;2022-08-14T01:21:36;22.80;49.60
10316;DHT22;5203;48.976;8.306;2022-08-14T01:24:04;22.90;49.30
10316;DHT22;5203;48.976;8.306;2022-08-14T01:26:32;22.90;49.00
10316;DHT22;5203;48.976;8.306;2022-08-14T01:29:00;22.90;49.20
10316;DHT22;5203;48.976;8.306;2022-08-14T01:31:30;22.80;49.50
10316;DHT22;5203;48.976;8.306;2022-08-14T01:33:59;22.80;49.50
10316;DHT22;5203;48.976;8.306;2022-08-14T01:36:26;22.90;49.50
10316;DHT22;5203;48.976;8.306;2022-08-14T01:38:54;22.80;49.50
10316;DHT22;5203;48.976;8.306;2022-08-14T01:41:25;22.80;49.80
10316;DHT22;5203;48.976;8.306;2022-08-14T01:44:03;22.80;50.20
10316;DHT22;5203;48.976;8.306;2022-08-14T01:46:34;22.80;49.80
10316;DHT22;5203;48.976;8.306;2022-08-14T01:49:01;22.70;49.90
10316;DHT22;5203;48.976;8.306;2022-08-14T01:51:29;22.80;49.70
10316;DHT22;5203;48.976;8.306;2022-08-14T01:53:58;22.70;50.00
10316;DHT22;5203;48.976;8.306;2022-08-14T01:56:29;22.50;49.90
10316;DHT22;5203;48.976;8.306;2022-08-14T02:01:48;22.20;50.50
10316;DHT22;5203;48.976;8.306;2022-08-14T02:04:18;22.10;50.60
10316;DHT22;5203;48.976;8.306;2022-08-14T02:06:45;22.10;50.30
10316;DHT22;5203;48.976;8.306;2022-08-14T02:09:15;22.10;50.10
10316;DHT22;5203;48.976;8.306;2022-08-14T02:11:41;22.00;50.40
10316;DHT22;5203;48.976;8.306;2022-08-14T02:14:09;22.10;50.50
10316;DHT22;5203;48.976;8.306;2022-08-14T02:16:40;22.00;50.10
10316;DHT22;5203;48.976;8.306;2022-08-14T02:19:09;21.90;50.10
10316;DHT22;5203;48.976;8.306;2022-08-14T02:21:36;22.00;50.30
10316;DHT22;5203;48.976;8.306;2022-08-14T02:24:04;22.00;50.50
10316;DHT22;5203;48.976;8.306;2022-08-14T02:26:36;22.00;50.60
10316;DHT22;5203;48.976;8.306;2022-08-14T02:29:13;22.00;50.60
10316;DHT22;5203;48.976;8.306;2022-08-14T02:31:41;21.90;50.90
10316;DHT22;5203;48.976;8.306;2022-08-14T02:36:55;21.70;51.20
10316;DHT22;5203;48.976;8.306;2022-08-14T02:39:24;21.70;51.50
10316;DHT22;5203;48.976;8.306;2022-08-14T02:41:49;21.60;51.40
10316;DHT22;5203;48.976;8.306;2022-08-14T02:44:17;21.60;51.50
10316;DHT22;5203;48.976;8.306;2022-08-14T02:46:48;21.60;51.10
10316;DHT22;5203;48.976;8.306;2022-08-14T02:49:14;21.70;51.50
10316;DHT22;5203;48.976;8.306;2022-08-14T02:51:40;21.70;51.20
10316;DHT22;5203;48.976;8.306;2022-08-14T02:54:08;21.60;51.40
10316;DHT22;5203;48.976;8.306;2022-08-14T02:56:37;21.60;51.30
10316;DHT22;5203;48.976;8.306;2022-08-14T02:59:04;21.60;51.50
10316;DHT22;5203;48.976;8.306;2022-08-14T03:01:31;21.50;51.80
10316;DHT22;5203;48.976;8.306;2022-08-14T03:03:58;21.40;52.20
10316;DHT22;5203;48.976;8.306;2022-08-14T03:06:24;21.20;53.20
10316;DHT22;5203;48.976;8.306;2022-08-14T03:08:51;21.10;53.10
10316;DHT22;5203;48.976;8.306;2022-08-14T03:11:18;21.10;53.60
10316;DHT22;5203;48.976;8.306;2022-08-14T03:13:49;21.10;53.60
10316;DHT22;5203;48.976;8.306;2022-08-14T03:16:20;21.10;53.00
10316;DHT22;5203;48.976;8.306;2022-08-14T03:18:48;21.20;52.90
10316;DHT22;5203;48.976;8.306;2022-08-14T03:21:16;21.30;52.30
10316;DHT22;5203;48.976;8.306;2022-08-14T03:23:43;21.20;52.80
10316;DHT22;5203;48.976;8.306;2022-08-14T03:26:12;21.20;53.30
10316;DHT22;5203;48.976;8.306;2022-08-14T03:28:38;21.10;53.50
10316;DHT22;5203;48.976;8.306;2022-08-14T03:31:07;21.10;53.90
10316;DHT22;5203;48.976;8.306;2022-08-14T03:33:34;21.10;53.90
10316;DHT22;5203;48.976;8.306;2022-08-14T03:36:05;21.00;54.10
10316;DHT22;5203;48.976;8.306;2022-08-14T03:38:37;21.10;54.20
10316;DHT22;5203;48.976;8.306;2022-08-14T03:41:10;21.10;53.90
10316;DHT22;5203;48.976;8.306;2022-08-14T03:43:41;21.10;54.10
10316;DHT22;5203;48.976;8.306;2022-08-14T03:46:07;21.00;54.30
10316;DHT22;5203;48.976;8.306;2022-08-14T03:48:36;21.10;54.10
10316;DHT22;5203;48.976;8.306;2022-08-14T03:51:05;21.10;54.00
10316;DHT22;5203;48.976;8.306;2022-08-14T03:53:36;21.10;54.30
10316;DHT22;5203;48.976;8.306;2022-08-14T03:56:11;21.00;54.70
10316;DHT22;5203;48.976;8.306;2022-08-14T03:58:44;21.00;54.60
10316;DHT22;5203;48.976;8.306;2022-08-14T04:01:12;21.10;54.60
10316;DHT22;5203;48.976;8.306;2022-08-14T04:03:38;21.10;54.40
10316;DHT22;5203;48.976;8.306;2022-08-14T04:06:05;21.00;55.40
10316;DHT22;5203;48.976;8.306;2022-08-14T04:08:36;20.70;57.40
10316;DHT22;5203;48.976;8.306;2022-08-14T04:11:03;20.70;57.10
10316;DHT22;5203;48.976;8.306;2022-08-14T04:13:30;20.60;57.20
10316;DHT22;5203;48.976;8.306;2022-08-14T04:15:56;20.60;56.30
10316;DHT22;5203;48.976;8.306;2022-08-14T04:18:21;20.70;56.00
10316;DHT22;5203;48.976;8.306;2022-08-14T04:20:47;20.80;56.30
10316;DHT22;5203;48.976;8.306;2022-08-14T04:23:14;20.80;56.30
10316;DHT22;5203;48.976;8.306;2022-08-14T04:25:41;20.80;56.40
10316;DHT22;5203;48.976;8.306;2022-08-14T04:28:09;20.80;56.80
10316;DHT22;5203;48.976;8.306;2022-08-14T04:30:36;20.70;57.20
10316;DHT22;5203;48.976;8.306;2022-08-14T04:33:06;20.70;57.20
10316;DHT22;5203;48.976;8.306;2022-08-14T04:35:34;20.70;57.00
10316;DHT22;5203;48.976;8.306;2022-08-14T04:38:08;20.80;56.80
10316;DHT22;5203;48.976;8.306;2022-08-14T04:40:52;20.70;57.20
10316;DHT22;5203;48.976;8.306;2022-08-14T04:43:36;20.70;57.50
10316;DHT22;5203;48.976;8.306;2022-08-14T04:46:16;20.60;57.10
10316;DHT22;5203;48.976;8.306;2022-08-14T04:48:42;20.80;56.30
10316;DHT22;5203;48.976;8.306;2022-08-14T04:51:11;20.70;56.30
10316;DHT22;5203;48.976;8.306;2022-08-14T04:53:40;20.70;56.00
10316;DHT22;5203;48.976;8.306;2022-08-14T04:56:08;20.80;55.80
10316;DHT22;5203;48.976;8.306;2022-08-14T04:58:34;20.80;55.60
10316;DHT22;5203;48.976;8.306;2022-08-14T05:01:03;20.80;55.60
10316;DHT22;5203;48.976;8.306;2022-08-14T05:03:31;20.70;56.10
10316;DHT22;5203;48.976;8.306;2022-08-14T05:06:00;20.80;55.70
10316;DHT22;5203;48.976;8.306;2022-08-14T05:08:27;20.80;55.50
10316;DHT22;5203;48.976;8.306;2022-08-14T05:10:55;20.90;55.70
10316;DHT22;5203;48.976;8.306;2022-08-14T05:13:26;20.90;55.20
10316;DHT22;5203;48.976;8.306;2022-08-14T05:15:53;20.90;55.80
10316;DHT22;5203;48.976;8.306;2022-08-14T05:18:22;20.80;56.00
10316;DHT22;5203;48.976;8.306;2022-08-14T05:20:50;20.80;56.00
10316;DHT22;5203;48.976;8.306;2022-08-14T05:23:19;20.80;56.60
10316;DHT22;5203;48.976;8.306;2022-08-14T05:25:47;20.60;57.70
10316;DHT22;5203;48.976;8.306;2022-08-14T05:28:15;20.60;58.30
10316;DHT22;5203;48.976;8.306;2022-08-14T05:30:44;20.60;59.30
10316;DHT22;5203;48.976;8.306;2022-08-14T05:33:12;20.60;59.80
10316;DHT22;5203;48.976;8.306;2022-08-14T05:35:38;20.50;60.30
10316;DHT22;5203;48.976;8.306;2022-08-14T05:38:08;20.50;59.10
10316;DHT22;5203;48.976;8.306;2022-08-14T05:40:35;20.70;58.80
10316;DHT22;5203;48.976;8.306;2022-08-14T05:43:01;20.80;57.20
10316;DHT22;5203;48.976;8.306;2022-08-14T05:45:27;20.80;55.80
10316;DHT22;5203;48.976;8.306;2022-08-14T05:47:53;20.70;56.60
10316;DHT22;5203;48.976;8.306;2022-08-14T05:50:19;20.70;56.60
10316;DHT22;5203;48.976;8.306;2022-08-14T05:52:46;20.80;54.40
10316;DHT22;5203;48.976;8.306;2022-08-14T05:55:12;20.90;54.10
10316;DHT22;5203;48.976;8.306;2022-08-14T06:00:16;20.90;54.60
10316;DHT22;5203;48.976;8.306;2022-08-14T06:02:43;20.90;54.00
10316;DHT22;5203;48.976;8.306;2022-08-14T06:05:09;21.00;53.90
10316;DHT22;5203;48.976;8.306;2022-08-14T06:07:35;21.20;53.50
10316;DHT22;5203;48.976;8.306;2022-08-14T06:10:03;21.30;52.60
10316;DHT22;5203;48.976;8.306;2022-08-14T06:12:29;21.40;52.60
10316;DHT22;5203;48.976;8.306;2022-08-14T06:14:55;21.40;52.20
10316;DHT22;5203;48.976;8.306;2022-08-14T06:17:21;21.40;51.80
10316;DHT22;5203;48.976;8.306;2022-08-14T06:19:46;21.40;52.00
10316;DHT22;5203;48.976;8.306;2022-08-14T06:22:12;21.50;52.10
10316;DHT22;5203;48.976;8.306;2022-08-14T06:24:38;21.50;51.50
10316;DHT22;5203;48.976;8.306;2022-08-14T06:27:04;21.70;51.40
10316;DHT22;5203;48.976;8.306;2022-08-14T06:29:30;21.60;51.10
10316;DHT22;5203;48.976;8.306;2022-08-14T06:31:56;21.70;51.20
10316;DHT22;5203;48.976;8.306;2022-08-14T06:34:22;21.80;51.20
10316;DHT22;5203;48.976;8.306;2022-08-14T06:36:48;21.90;50.80
10316;DHT22;5203;48.976;8.306;2022-08-14T06:39:14;21.90;50.10
10316;DHT22;5203;48.976;8.306;2022-08-14T06:41:40;22.00;50.20
10316;DHT22;5203;48.976;8.306;2022-08-14T06:44:07;22.00;50.70
10316;DHT22;5203;48.976;8.306;2022-08-14T06:46:33;22.00;50.20
10316;DHT22;5203;48.976;8.306;2022-08-14T06:48:59;22.10;50.50
10316;DHT22;5203;48.976;8.306;2022-08-14T06:51:25;22.20;50.50
10316;DHT22;5203;48.976;8.306;2022-08-14T06:53:50;22.30;50.20
10316;DHT22;5203;48.976;8.306;2022-08-14T06:56:16;22.20;51.00
10316;DHT22;5203;48.976;8.306;2022-08-14T06:58:42;22.30;51.40
10316;DHT22;5203;48.976;8.306;2022-08-14T07:01:07;22.30;49.70
10316;DHT22;5203;48.976;8.306;2022-08-14T07:03:52;22.40;49.40
10316;DHT22;5203;48.976;8.306;2022-08-14T07:06:36;22.40;49.20
10316;DHT22;5203;48.976;8.306;2022-08-14T07:09:01;22.40;49.10
10316;DHT22;5203;48.976;8.306;2022-08-14T07:11:29;22.50;49.00
10316;DHT22;5203;48.976;8.306;2022-08-14T07:13:55;22.60;49.00
10316;DHT22;5203;48.976;8.306;2022-08-14T07:16:21;22.80;49.30
10316;DHT22;5203;48.976;8.306;2022-08-14T07:18:47;22.80;49.30
10316;DHT22;5203;48.976;8.306;2022-08-14T07:21:12;22.90;48.90
10316;DHT22;5203;48.976;8.306;2022-08-14T07:23:40;23.10;48.40
10316;DHT22;5203;48.976;8.306;2022-08-14T07:26:06;23.10;48.40
10316;DHT22;5203;48.976;8.306;2022-08-14T07:28:34;23.20;48.10
10316;DHT22;5203;48.976;8.306;2022-08-14T07:31:03;23.30;48.50
10316;DHT22;5203;48.976;8.306;2022-08-14T07:33:48;23.30;49.40
10316;DHT22;5203;48.976;8.306;2022-08-14T07:36:15;23.40;48.60
10316;DHT22;5203;48.976;8.306;2022-08-14T07:38:41;23.50;48.10
10316;DHT22;5203;48.976;8.306;2022-08-14T07:41:08;23.60;46.80
10316;DHT22;5203;48.976;8.306;2022-08-14T07:43:35;23.90;47.20
10316;DHT22;5203;48.976;8.306;2022-08-14T07:46:02;23.90;47.00
10316;DHT22;5203;48.976;8.306;2022-08-14T07:48:27;24.00;47.30
10316;DHT22;5203;48.976;8.306;2022-08-14T07:50:53;24.20;47.20
10316;DHT22;5203;48.976;8.306;2022-08-14T07:53:19;24.30;47.00
10316;DHT22;5203;48.976;8.306;2022-08-14T07:55:46;24.50;46.00
10316;DHT22;5203;48.976;8.306;2022-08-14T07:58:13;24.70;46.00
10316;DHT22;5203;48.976;8.306;2022-08-14T08:00:39;24.80;45.30
10316;DHT22;5203;48.976;8.306;2022-08-14T08:03:08;25.10;44.70
10316;DHT22;5203;48.976;8.306;2022-08-14T08:05:37;25.10;44.70
10316;DHT22;5203;48.976;8.306;2022-08-14T08:08:04;25.30;42.20
10316;DHT22;5203;48.976;8.306;2022-08-14T08:10:29;25.40;41.90
10316;DHT22;5203;48.976;8.306;2022-08-14T08:15:24;25.40;41.00
10316;DHT22;5203;48.976;8.306;2022-08-14T08:17:50;25.60;40.70
10316;DHT22;5203;48.976;8.306;2022-08-14T08:20:18;25.70;40.10
10316;DHT22;5203;48.976;8.306;2022-08-14T08:22:46;25.70;39.70
10316;DHT22;5203;48.976;8.306;2022-08-14T08:25:13;25.80;40.80
10316;DHT22;5203;48.976;8.306;2022-08-14T08:27:41;25.90;39.40
10316;DHT22;5203;48.976;8.306;2022-08-14T08:30:08;26.10;40.00
10316;DHT22;5203;48.976;8.306;2022-08-14T08:32:41;26.20;38.50
10316;DHT22;5203;48.976;8.306;2022-08-14T08:35:23;26.50;38.20
10316;DHT22;5203;48.976;8.306;2022-08-14T08:37:51;26.60;36.80
10316;DHT22;5203;48.976;8.306;2022-08-14T08:40:36;26.70;36.10
10316;DHT22;5203;48.976;8.306;2022-08-14T08:43:06;26.90;36.10
10316;DHT22;5203;48.976;8.306;2022-08-14T08:45:34;26.90;36.40
10316;DHT22;5203;48.976;8.306;2022-08-14T08:48:01;27.10;36.00
10316;DHT22;5203;48.976;8.306;2022-08-14T08:50:33;27.40;36.10
10316;DHT22;5203;48.976;8.306;2022-08-14T08:53:09;27.50;34.80
10316;DHT22;5203;48.976;8.306;2022-08-14T08:55:40;27.60;34.70
10316;DHT22;5203;48.976;8.306;2022-08-14T08:58:15;27.60;34.50
10316;DHT22;5203;48.976;8.306;2022-08-14T09:00:45;27.80;34.10
10316;DHT22;5203;48.976;8.306;2022-08-14T09:03:14;28.00;33.80
10316;DHT22;5203;48.976;8.306;2022-08-14T09:05:53;28.20;33.30
10316;DHT22;5203;48.976;8.306;2022-08-14T09:08:21;28.40;33.30
10316;DHT22;5203;48.976;8.306;2022-08-14T09:10:49;28.50;33.30
10316;DHT22;5203;48.976;8.306;2022-08-14T09:13:15;28.60;32.50
10316;DHT22;5203;48.976;8.306;2022-08-14T09:15:44;28.70;31.90
10316;DHT22;5203;48.976;8.306;2022-08-14T09:18:11;28.80;32.10
10316;DHT22;5203;48.976;8.306;2022-08-14T09:20:39;28.90;31.70
10316;DHT22;5203;48.976;8.306;2022-08-14T09:23:07;29.20;31.00
10316;DHT22;5203;48.976;8.306;2022-08-14T09:25:33;29.50;30.00
10316;DHT22;5203;48.976;8.306;2022-08-14T09:27:59;29.70;29.20
10316;DHT22;5203;48.976;8.306;2022-08-14T09:30:25;29.80;29.70
10316;DHT22;5203;48.976;8.306;2022-08-14T09:38:52;29.70;29.50
10316;DHT22;5203;48.976;8.306;2022-08-14T09:46:53;30.40;28.40
10316;DHT22;5203;48.976;8.306;2022-08-14T09:49:35;30.50;28.40
10316;DHT22;5203;48.976;8.306;2022-08-14T09:52:11;30.60;28.60
10316;DHT22;5203;48.976;8.306;2022-08-14T09:54:37;30.70;27.70
10316;DHT22;5203;48.976;8.306;2022-08-14T09:57:05;30.90;26.90
10316;DHT22;5203;48.976;8.306;2022-08-14T09:59:45;31.10;27.00
10316;DHT22;5203;48.976;8.306;2022-08-14T10:02:38;31.30;26.90
10316;DHT22;5203;48.976;8.306;2022-08-14T10:05:05;31.50;26.80
10316;DHT22;5203;48.976;8.306;2022-08-14T10:07:36;31.80;26.10
10316;DHT22;5203;48.976;8.306;2022-08-14T10:10:35;31.80;25.80
10316;DHT22;5203;48.976;8.306;2022-08-14T10:13:04;32.00;26.10
10316;DHT22;5203;48.976;8.306;2022-08-14T10:15:31;32.20;25.80
10316;DHT22;5203;48.976;8.306;2022-08-14T10:18:12;32.40;25.70
10316;DHT22;5203;48.976;8.306;2022-08-14T10:20:41;32.80;25.40
10316;DHT22;5203;48.976;8.306;2022-08-14T10:23:17;33.00;25.70
10316;DHT22;5203;48.976;8.306;2022-08-14T10:25:45;32.90;24.60
10316;DHT22;5203;48.976;8.306;2022-08-14T10:28:12;32.80;25.00
10316;DHT22;5203;48.976;8.306;2022-08-14T10:30:42;32.90;24.00
10316;DHT22;5203;48.976;8.306;2022-08-14T10:33:08;33.10;23.90
10316;DHT22;5203;48.976;8.306;2022-08-14T10:35:42;33.20;24.10
10316;DHT22;5203;48.976;8.306;2022-08-14T10:38:08;33.50;24.40
10316;DHT22;5203;48.976;8.306;2022-08-14T10:40:35;33.60;24.50
10316;DHT22;5203;48.976;8.306;2022-08-14T10:43:13;33.50;24.90
10316;DHT22;5203;48.976;8.306;2022-08-14T10:45:40;33.60;24.30
10316;DHT22;5203;48.976;8.306;2022-08-14T10:48:18;33.90;23.60
10316;DHT22;5203;48.976;8.306;2022-08-14T10:50:44;33.90;23.20
10316;DHT22;5203;48.976;8.306;2022-08-14T10:53:13;33.90;22.90
10316;DHT22;5203;48.976;8.306;2022-08-14T10:55:39;34.10;23.10
10316;DHT22;5203;48.976;8.306;2022-08-14T10:58:09;34.40;22.70
10316;DHT22;5203;48.976;8.306;2022-08-14T11:00:39;34.50;22.50
10316;DHT22;5203;48.976;8.306;2022-08-14T11:03:07;34.40;22.60
10316;DHT22;5203;48.976;8.306;2022-08-14T11:05:52;34.70;22.80
10316;DHT22;5203;48.976;8.306;2022-08-14T11:08:30;34.70;22.90
10316;DHT22;5203;48.976;8.306;2022-08-14T11:10:59;34.70;22.80
10316;DHT22;5203;48.976;8.306;2022-08-14T11:13:28;34.70;21.70
10316;DHT22;5203;48.976;8.306;2022-08-14T11:15:55;35.00;21.30
10316;DHT22;5203;48.976;8.306;2022-08-14T11:18:22;34.80;20.50
10316;DHT22;5203;48.976;8.306;2022-08-14T11:20:50;34.80;21.00
10316;DHT22;5203;48.976;8.306;2022-08-14T11:23:27;35.10;22.20
10316;DHT22;5203;48.976;8.306;2022-08-14T11:25:56;35.40;21.80
10316;DHT22;5203;48.976;8.306;2022-08-14T11:28:24;35.50;21.50
10316;DHT22;5203;48.976;8.306;2022-08-14T11:30:51;35.50;20.30
10316;DHT22;5203;48.976;8.306;2022-08-14T11:33:25;35.70;19.60
10316;DHT22;5203;48.976;8.306;2022-08-14T11:35:55;35.80;19.40
10316;DHT22;5203;48.976;8.306;2022-08-14T11:38:23;35.90;18.80
10316;DHT22;5203;48.976;8.306;2022-08-14T11:40:49;36.10;19.40
10316;DHT22;5203;48.976;8.306;2022-08-14T11:43:15;36.20;19.20
10316;DHT22;5203;48.976;8.306;2022-08-14T11:45:46;36.40;18.90
10316;DHT22;5203;48.976;8.306;2022-08-14T11:50:41;36.40;18.80
10316;DHT22;5203;48.976;8.306;2022-08-14T11:53:24;36.50;18.70
10316;DHT22;5203;48.976;8.306;2022-08-14T11:56:04;36.60;18.80
10316;DHT22;5203;48.976;8.306;2022-08-14T11:58:39;36.50;18.80
10316;DHT22;5203;48.976;8.306;2022-08-14T12:01:07;36.10;18.90
10316;DHT22;5203;48.976;8.306;2022-08-14T12:03:42;36.30;19.20
10316;DHT22;5203;48.976;8.306;2022-08-14T12:06:09;36.50;19.00
10316;DHT22;5203;48.976;8.306;2022-08-14T12:08:36;36.70;18.60
10316;DHT22;5203;48.976;8.306;2022-08-14T12:11:03;36.60;18.40
10316;DHT22;5203;48.976;8.306;2022-08-14T12:13:30;36.70;18.40
10316;DHT22;5203;48.976;8.306;2022-08-14T12:16:04;36.80;18.60
10316;DHT22;5203;48.976;8.306;2022-08-14T12:18:36;36.90;18.50
10316;DHT22;5203;48.976;8.306;2022-08-14T12:23:44;37.60;18.00
10316;DHT22;5203;48.976;8.306;2022-08-14T12:26:14;37.80;18.10
10316;DHT22;5203;48.976;8.306;2022-08-14T12:28:43;37.30;18.40
10316;DHT22;5203;48.976;8.306;2022-08-14T12:31:17;37.10;19.10
10316;DHT22;5203;48.976;8.306;2022-08-14T12:33:58;36.60;19.00
10316;DHT22;5203;48.976;8.306;2022-08-14T12:36:25;36.30;19.80
10316;DHT22;5203;48.976;8.306;2022-08-14T12:38:58;36.50;19.00
10316;DHT22;5203;48.976;8.306;2022-08-14T12:41:29;36.90;18.80
10316;DHT22;5203;48.976;8.306;2022-08-14T12:44:00;36.70;18.80
10316;DHT22;5203;48.976;8.306;2022-08-14T12:46:33;36.90;18.70
10316;DHT22;5203;48.976;8.306;2022-08-14T12:49:09;37.40;18.40
10316;DHT22;5203;48.976;8.306;2022-08-14T12:51:35;37.60;18.40
10316;DHT22;5203;48.976;8.306;2022-08-14T12:54:13;37.80;18.50
10316;DHT22;5203;48.976;8.306;2022-08-14T12:56:39;38.10;18.20
10316;DHT22;5203;48.976;8.306;2022-08-14T12:59:05;38.00;18.00
10316;DHT22;5203;48.976;8.306;2022-08-14T13:01:33;38.00;17.90
10316;DHT22;5203;48.976;8.306;2022-08-14T13:04:07;38.10;17.90
10316;DHT22;5203;48.976;8.306;2022-08-14T13:06:35;38.10;17.90
10316;DHT22;5203;48.976;8.306;2022-08-14T13:09:03;38.10;17.80
10316;DHT22;5203;48.976;8.306;2022-08-14T13:11:36;38.30;17.70
10316;DHT22;5203;48.976;8.306;2022-08-14T13:14:02;38.40;17.70
10316;DHT22;5203;48.976;8.306;2022-08-14T13:16:29;38.60;17.40
10316;DHT22;5203;48.976;8.306;2022-08-14T13:18:56;38.60;17.70
10316;DHT22;5203;48.976;8.306;2022-08-14T13:21:30;38.80;17.30
10316;DHT22;5203;48.976;8.306;2022-08-14T13:23:56;39.10;17.40
10316;DHT22;5203;48.976;8.306;2022-08-14T13:26:24;39.20;17.90
10316;DHT22;5203;48.976;8.306;2022-08-14T13:28:51;38.80;17.60
10316;DHT22;5203;48.976;8.306;2022-08-14T13:31:21;39.10;17.90
10316;DHT22;5203;48.976;8.306;2022-08-14T13:33:48;39.50;17.30
10316;DHT22;5203;48.976;8.306;2022-08-14T13:36:14;39.00;17.40
10316;DHT22;5203;48.976;8.306;2022-08-14T13:38:42;38.80;18.20
10316;DHT22;5203;48.976;8.306;2022-08-14T13:41:09;39.20;17.90
10316;DHT22;5203;48.976;8.306;2022-08-14T13:43:36;39.40;17.30
10316;DHT22;5203;48.976;8.306;2022-08-14T13:46:05;38.80;17.50
10316;DHT22;5203;48.976;8.306;2022-08-14T13:48:31;39.00;17.50
10316;DHT22;5203;48.976;8.306;2022-08-14T13:50:57;39.40;17.50
10316;DHT22;5203;48.976;8.306;2022-08-14T13:53:25;39.20;17.30
10316;DHT22;5203;48.976;8.306;2022-08-14T13:55:51;39.30;18.10
10316;DHT22;5203;48.976;8.306;2022-08-14T13:58:20;39.80;17.10
10316;DHT22;5203;48.976;8.306;2022-08-14T14:00:49;40.30;17.10
10316;DHT22;5203;48.976;8.306;2022-08-14T14:03:18;40.10;16.90
10316;DHT22;5203;48.976;8.306;2022-08-14T14:05:44;40.00;17.60
10316;DHT22;5203;48.976;8.306;2022-08-14T14:08:10;39.30;17.40
10316;DHT22;5203;48.976;8.306;2022-08-14T14:10:38;39.00;16.80
10316;DHT22;5203;48.976;8.306;2022-08-14T14:13:04;38.80;17.10
10316;DHT22;5203;48.976;8.306;2022-08-14T14:15:30;38.90;17.00
10316;DHT22;5203;48.976;8.306;2022-08-14T14:17:56;38.70;17.00
10316;DHT22;5203;48.976;8.306;2022-08-14T14:20:25;38.70;17.40
10316;DHT22;5203;48.976;8.306;2022-08-14T14:22:51;38.90;16.70
10316;DHT22;5203;48.976;8.306;2022-08-14T14:25:18;38.80;16.60
10316;DHT22;5203;48.976;8.306;2022-08-14T14:27:46;38.40;17.50
10316;DHT22;5203;48.976;8.306;2022-08-14T14:30:16;38.30;17.40
10316;DHT22;5203;48.976;8.306;2022-08-14T14:32:44;38.00;17.40
10316;DHT22;5203;48.976;8.306;2022-08-14T14:35:13;37.70;17.50
10316;DHT22;5203;48.976;8.306;2022-08-14T14:37:40;37.30;17.60
10316;DHT22;5203;48.976;8.306;2022-08-14T14:40:09;36.80;17.90
10316;DHT22;5203;48.976;8.306;2022-08-14T14:42:45;36.70;18.80
10316;DHT22;5203;48.976;8.306;2022-08-14T14:45:14;36.70;18.90
10316;DHT22;5203;48.976;8.306;2022-08-14T14:47:44;36.60;18.70
10316;DHT22;5203;48.976;8.306;2022-08-14T14:50:11;36.40;18.60
10316;DHT22;5203;48.976;8.306;2022-08-14T14:52:37;36.20;18.70
10316;DHT22;5203;48.976;8.306;2022-08-14T14:55:05;35.80;18.70
10316;DHT22;5203;48.976;8.306;2022-08-14T14:57:31;35.30;19.90
10316;DHT22;5203;48.976;8.306;2022-08-14T14:59:57;35.20;20.10
10316;DHT22;5203;48.976;8.306;2022-08-14T15:04:57;35.20;20.30
10316;DHT22;5203;48.976;8.306;2022-08-14T15:07:23;35.00;19.20
10316;DHT22;5203;48.976;8.306;2022-08-14T15:09:49;34.80;18.90
10316;DHT22;5203;48.976;8.306;2022-08-14T15:12:14;34.50;19.20
10316;DHT22;5203;48.976;8.306;2022-08-14T15:14:40;34.50;19.80
10316;DHT22;5203;48.976;8.306;2022-08-14T15:17:06;34.30;18.90
10316;DHT22;5203;48.976;8.306;2022-08-14T15:19:32;34.30;19.40
10316;DHT22;5203;48.976;8.306;2022-08-14T15:21:57;34.20;19.70
10316;DHT22;5203;48.976;8.306;2022-08-14T15:24:23;34.50;19.90
10316;DHT22;5203;48.976;8.306;2022-08-14T15:26:49;34.50;18.50
10316;DHT22;5203;48.976;8.306;2022-08-14T15:29:15;34.50;18.90
10316;DHT22;5203;48.976;8.306;2022-08-14T15:31:41;34.50;18.70
10316;DHT22;5203;48.976;8.306;2022-08-14T15:34:09;34.50;18.00
10316;DHT22;5203;48.976;8.306;2022-08-14T15:36:42;34.40;18.50
10316;DHT22;5203;48.976;8.306;2022-08-14T15:39:13;34.30;18.10
10316;DHT22;5203;48.976;8.306;2022-08-14T15:41:40;34.30;18.80
10316;DHT22;5203;48.976;8.306;2022-08-14T15:44:06;34.30;19.10
10316;DHT22;5203;48.976;8.306;2022-08-14T15:46:33;34.30;19.00
10316;DHT22;5203;48.976;8.306;2022-08-14T15:48:59;34.30;19.20
10316;DHT22;5203;48.976;8.306;2022-08-14T15:51:26;34.30;19.40
10316;DHT22;5203;48.976;8.306;2022-08-14T15:53:56;34.40;19.90
10316;DHT22;5203;48.976;8.306;2022-08-14T15:56:22;34.20;20.70
10316;DHT22;5203;48.976;8.306;2022-08-14T15:58:48;34.20;19.70
10316;DHT22;5203;48.976;8.306;2022-08-14T16:01:13;34.00;20.50
10316;DHT22;5203;48.976;8.306;2022-08-14T16:03:47;34.00;21.10
10316;DHT22;5203;48.976;8.306;2022-08-14T16:06:16;34.10;21.00
10316;DHT22;5203;48.976;8.306;2022-08-14T16:08:47;34.10;20.10
10316;DHT22;5203;48.976;8.306;2022-08-14T16:11:14;34.10;20.00
10316;DHT22;5203;48.976;8.306;2022-08-14T16:13:40;34.10;20.40
10316;DHT22;5203;48.976;8.306;2022-08-14T16:16:15;34.10;20.40
10316;DHT22;5203;48.976;8.306;2022-08-14T16:18:43;34.10;20.70
10316;DHT22;5203;48.976;8.306;2022-08-14T16:21:14;34.00;21.50
10316;DHT22;5203;48.976;8.306;2022-08-14T16:23:41;34.00;20.90